Time;durP1;ratioP1;P1;durP2;ratioP2;P2;SDS_P1;SDS_P2;PMS_P1;PMS_P2;Temp;Humidity;BMP_temperature;BMP_pressure;BME280_temperature;BME280_humidity;BME280_pressure;Samples;Min_cycle;Max_cycle;Signal;HPM_P1;HPM_P2
2022/05/25 00:01:48;;;;;;;1.50;0.60;;;15.30;1.00;;;;;;7359347;19;20374;-61
2022/05/25 00:04:19;;;;;;;0.57;0.55;;;15.20;1.00;;;;;;7364266;19;20014;-61
2022/05/25 00:06:49;;;;;;;1.73;0.60;;;15.20;1.00;;;;;;7371909;19;20010;-59
2022/05/25 00:09:23;;;;;;;1.20;0.60;;;15.30;1.00;;;;;;7364448;19;20019;-60
2022/05/25 00:11:53;;;;;;;2.27;0.80;;;15.30;1.00;;;;;;7389464;19;20446;-60
2022/05/25 00:14:23;;;;;;;1.42;0.50;;;15.30;1.00;;;;;;7369845;19;20019;-60
2022/05/25 00:16:53;;;;;;;0.65;0.60;;;15.20;1.00;;;;;;7371375;19;20010;-60
2022/05/25 00:22:05;;;;;;;1.98;0.85;;;15.20;1.00;;;;;;7367977;19;20006;-60
2022/05/25 00:24:38;;;;;;;1.52;0.75;;;15.10;1.00;;;;;;7371048;19;20007;-59
2022/05/25 00:27:08;;;;;;;1.95;1.08;;;15.10;1.00;;;;;;7372472;19;20022;-61
2022/05/25 00:29:39;;;;;;;2.67;0.95;;;15.10;1.00;;;;;;7387079;19;20014;-60
2022/05/25 00:32:09;;;;;;;1.50;0.90;;;15.00;1.00;;;;;;7365762;19;20014;-60
2022/05/25 00:34:40;;;;;;;1.15;0.68;;;15.00;1.00;;;;;;7370530;19;20092;-60
2022/05/25 00:37:10;;;;;;;1.45;0.70;;;15.00;1.00;;;;;;7372585;19;20655;-60
2022/05/25 00:39:43;;;;;;;1.25;0.57;;;14.90;1.00;;;;;;7367141;19;20007;-60
2022/05/25 00:42:13;;;;;;;1.45;0.75;;;14.90;1.00;;;;;;7364602;19;20018;-61
2022/05/25 00:44:43;;;;;;;2.20;0.80;;;14.80;1.00;;;;;;7391158;19;20038;-60
2022/05/25 00:47:23;;;;;;;1.00;0.75;;;14.80;1.00;;;;;;7370006;19;20028;-60
2022/05/25 00:49:53;;;;;;;0.90;0.80;;;14.70;1.00;;;;;;7366302;19;20548;-61
2022/05/25 00:52:24;;;;;;;1.05;0.70;;;14.60;1.00;;;;;;7366477;19;20014;-61
2022/05/25 00:55:01;;;;;;;2.20;0.90;;;14.60;1.00;;;;;;7370024;19;20086;-61
2022/05/25 00:57:35;;;;;;;1.17;1.08;;;14.60;1.00;;;;;;7369810;19;20011;-61
2022/05/25 01:00:06;;;;;;;;;;;14.60;1.00;;;;;;7369234;19;20415;-61
2022/05/25 01:02:39;;;;;;;1.38;0.80;;;14.50;1.00;;;;;;7387080;19;19922;-60
2022/05/25 01:05:11;;;;;;;1.38;0.85;;;14.50;1.00;;;;;;7368138;19;20011;-61
2022/05/25 01:07:57;;;;;;;1.10;0.80;;;14.40;1.00;;;;;;7368401;19;20019;-61
2022/05/25 01:10:40;;;;;;;1.17;0.80;;;14.30;1.00;;;;;;7365595;19;20465;-60
2022/05/25 01:13:24;;;;;;;1.33;0.80;;;14.30;1.00;;;;;;7368210;19;20013;-61
2022/05/25 01:16:08;;;;;;;3.63;0.95;;;14.30;1.00;;;;;;7366636;19;20014;-60
2022/05/25 01:18:43;;;;;;;3.58;1.42;;;14.40;1.00;;;;;;7365423;19;20117;-60
2022/05/25 01:21:22;;;;;;;2.58;0.90;;;14.30;1.00;;;;;;7367717;19;20010;-60
2022/05/25 01:24:02;;;;;;;3.75;0.90;;;14.30;1.00;;;;;;7390998;19;20021;-60
2022/05/25 01:26:59;;;;;;;3.38;1.20;;;14.30;1.00;;;;;;7370527;19;20010;-61
2022/05/25 01:29:55;;;;;;;2.10;0.70;;;14.30;1.00;;;;;;7363252;19;20468;-60
2022/05/25 01:32:31;;;;;;;1.52;1.17;;;14.20;1.00;;;;;;7364416;19;20077;-61
2022/05/25 01:35:08;;;;;;;1.50;0.80;;;14.20;1.00;;;;;;7368072;19;20018;-60
2022/05/25 01:37:43;;;;;;;2.00;1.10;;;14.30;1.00;;;;;;7367346;19;20566;-61
2022/05/25 01:40:20;;;;;;;2.50;1.10;;;14.20;1.00;;;;;;7366396;19;20006;-60
2022/05/25 01:42:56;;;;;;;1.00;0.70;;;14.10;1.00;;;;;;7364730;19;20451;-60
2022/05/25 01:45:34;;;;;;;1.63;1.00;;;14.10;1.00;;;;;;7367882;19;20091;-60
2022/05/25 01:48:08;;;;;;;2.22;1.15;;;14.10;1.00;;;;;;7378766;19;20018;-60
2022/05/25 01:50:40;;;;;;;;;;;14.10;1.00;;;;;;7384706;19;20053;-61
2022/05/25 01:53:15;;;;;;;1.67;0.85;;;14.10;1.00;;;;;;7366144;19;19913;-61
2022/05/25 01:55:50;;;;;;;1.88;0.85;;;14.10;1.00;;;;;;7367410;19;20097;-60
2022/05/25 01:58:23;;;;;;;1.40;0.90;;;14.00;1.00;;;;;;7366257;19;20538;-60
2022/05/25 02:00:59;;;;;;;1.25;0.90;;;14.10;1.00;;;;;;7365489;19;20027;-60
2022/05/25 02:06:46;;;;;;;1.80;0.80;;;13.90;1.00;;;;;;7369389;19;20014;-60
2022/05/25 02:09:27;;;;;;;1.98;0.80;;;13.90;1.00;;;;;;7361980;19;20086;-60
2022/05/25 02:12:05;;;;;;;3.25;0.93;;;13.90;1.00;;;;;;7385598;19;20118;-61
2022/05/25 02:14:46;;;;;;;2.88;0.60;;;13.90;1.00;;;;;;7367660;19;20010;-61
2022/05/25 02:17:32;;;;;;;5.03;1.00;;;13.90;1.00;;;;;;7367739;19;20007;-61
2022/05/25 02:20:09;;;;;;;2.13;0.65;;;13.90;1.00;;;;;;7365596;19;20014;-61
2022/05/25 02:22:43;;;;;;;1.23;0.75;;;13.80;1.00;;;;;;7363137;19;20014;-59
2022/05/25 02:25:17;;;;;;;2.20;0.70;;;13.80;1.00;;;;;;7367477;19;20066;-60
2022/05/25 02:27:52;;;;;;;2.15;0.73;;;13.90;1.00;;;;;;7364525;19;20021;-62
2022/05/25 02:30:26;;;;;;;0.98;0.60;;;13.90;1.00;;;;;;7363439;19;20086;-60
2022/05/25 02:33:02;;;;;;;1.20;0.65;;;13.90;1.00;;;;;;7386166;19;20020;-60
2022/05/25 02:35:33;;;;;;;2.78;1.45;;;13.90;1.00;;;;;;7365285;19;20050;-61
2022/05/25 02:38:07;;;;;;;1.08;0.70;;;13.90;1.00;;;;;;7365049;19;20034;-61
2022/05/25 02:40:38;;;;;;;2.50;0.90;;;13.90;1.00;;;;;;7362866;19;20020;-61
2022/05/25 02:43:09;;;;;;;1.35;0.95;;;13.80;1.00;;;;;;7365931;19;20011;-61
2022/05/25 02:45:40;;;;;;;2.22;0.73;;;13.80;1.00;;;;;;7366875;19;20031;-61
2022/05/25 02:48:12;;;;;;;1.40;1.17;;;13.80;1.00;;;;;;7365334;19;20438;-61
2022/05/25 02:50:42;;;;;;;6.55;1.00;;;13.70;1.00;;;;;;7382379;19;20111;-61
2022/05/25 02:53:12;;;;;;;2.78;0.85;;;13.70;1.00;;;;;;7364257;19;20509;-60
2022/05/25 02:55:42;;;;;;;2.75;0.80;;;13.70;1.00;;;;;;7365604;19;20014;-60
2022/05/25 02:58:12;;;;;;;1.77;0.70;;;13.70;1.00;;;;;;7365360;19;20025;-60
2022/05/25 03:00:42;;;;;;;1.52;1.02;;;13.70;1.00;;;;;;7361759;19;20086;-60
2022/05/25 03:03:14;;;;;;;2.95;1.35;;;13.60;1.00;;;;;;7365883;19;20010;-60
2022/05/25 03:05:45;;;;;;;2.13;0.90;;;13.60;1.00;;;;;;7386809;19;20030;-60
2022/05/25 03:08:14;;;;;;;1.50;0.88;;;13.60;1.00;;;;;;7362311;19;20467;-60
2022/05/25 03:10:44;;;;;;;3.10;1.10;;;13.60;1.00;;;;;;7362317;19;20097;-61
2022/05/25 03:13:14;;;;;;;1.60;1.10;;;13.50;1.00;;;;;;7365541;19;20074;-61
2022/05/25 03:15:44;;;;;;;1.55;1.00;;;13.60;1.00;;;;;;7364951;19;20096;-61
2022/05/25 03:18:17;;;;;;;1.40;0.88;;;13.50;1.00;;;;;;7364376;19;20025;-60
2022/05/25 03:20:49;;;;;;;1.80;0.80;;;13.50;1.00;;;;;;7383732;19;20013;-60
2022/05/25 03:23:19;;;;;;;3.10;0.90;;;13.40;1.00;;;;;;7363950;19;20022;-60
2022/05/25 03:25:50;;;;;;;2.65;1.10;;;13.40;1.00;;;;;;7366027;19;20007;-60
2022/05/25 03:28:20;;;;;;;1.13;0.75;;;13.50;1.00;;;;;;7363955;19;20014;-60
2022/05/25 03:30:50;;;;;;;1.55;0.70;;;13.50;1.00;;;;;;7361109;19;20114;-60
2022/05/25 03:33:22;;;;;;;3.17;1.70;;;13.50;1.00;;;;;;7363815;19;20010;-60
2022/05/25 03:35:52;;;;;;;1.83;0.80;;;13.40;1.00;;;;;;7385660;19;20018;-60
2022/05/25 03:38:22;;;;;;;1.38;1.00;;;13.50;1.00;;;;;;7361248;19;20109;-60
2022/05/25 03:40:53;;;;;;;3.15;1.00;;;13.50;1.00;;;;;;7361596;19;20021;-60
2022/05/25 03:43:23;;;;;;;1.15;0.88;;;13.50;1.00;;;;;;7363536;19;20495;-61
2022/05/25 03:45:53;;;;;;;2.25;1.17;;;13.50;1.00;;;;;;7363614;19;20010;-59
2022/05/25 03:48:25;;;;;;;1.88;0.80;;;13.40;1.00;;;;;;7361227;19;20118;-60
2022/05/25 03:50:55;;;;;;;2.17;0.98;;;13.50;1.00;;;;;;7381872;19;20010;-59
2022/05/25 03:53:25;;;;;;;3.17;1.00;;;13.50;1.00;;;;;;7363463;19;20006;-60
2022/05/25 03:55:55;;;;;;;1.48;0.80;;;13.50;1.00;;;;;;7364113;19;20014;-60
2022/05/25 03:58:25;;;;;;;3.67;0.90;;;13.40;1.00;;;;;;7359982;19;20015;-60
2022/05/25 04:00:55;;;;;;;2.85;1.55;;;13.40;1.00;;;;;;7361752;19;20644;-60
2022/05/25 04:03:28;;;;;;;2.17;1.05;;;13.50;1.00;;;;;;7363799;19;20018;-60
2022/05/25 04:06:00;;;;;;;1.83;1.13;;;13.60;1.00;;;;;;7385137;19;20014;-59
2022/05/25 04:08:30;;;;;;;3.40;1.30;;;13.50;1.00;;;;;;7360364;19;20094;-60
2022/05/25 04:11:00;;;;;;;3.53;1.13;;;13.40;1.00;;;;;;7360465;19;20007;-60
2022/05/25 04:13:30;;;;;;;2.38;1.00;;;13.30;1.00;;;;;;7362389;19;20018;-61
2022/05/25 04:15:59;;;;;;;1.60;1.10;;;13.30;1.00;;;;;;7363610;19;20090;-61
2022/05/25 04:18:32;;;;;;;2.08;1.13;;;13.30;1.00;;;;;;7359858;19;20034;-61
2022/05/25 04:21:02;;;;;;;2.50;1.20;;;13.20;1.00;;;;;;7382657;19;20006;-61
2022/05/25 04:23:32;;;;;;;3.38;1.33;;;13.40;1.00;;;;;;7362462;19;20118;-61
2022/05/25 04:26:02;;;;;;;1.25;1.00;;;13.30;1.00;;;;;;7363935;19;20478;-61
2022/05/25 04:28:32;;;;;;;2.97;1.23;;;13.40;1.00;;;;;;7360021;19;20010;-61
2022/05/25 04:31:02;;;;;;;4.80;1.00;;;13.50;1.00;;;;;;7360554;19;20014;-61
2022/05/25 04:33:36;;;;;;;2.33;0.98;;;13.50;1.00;;;;;;7361563;19;20544;-61
2022/05/25 04:36:06;;;;;;;1.83;1.10;;;13.50;1.00;;;;;;7362130;19;20497;-59
2022/05/25 04:38:36;;;;;;;1.90;1.00;;;13.60;1.00;;;;;;7381889;19;20295;-61
2022/05/25 04:41:06;;;;;;;4.47;1.00;;;13.70;1.00;;;;;;7359940;19;20018;-59
2022/05/25 04:43:36;;;;;;;1.90;0.90;;;13.60;1.00;;;;;;7361067;19;20489;-60
2022/05/25 04:46:11;;;;;;;1.60;0.85;;;13.70;1.00;;;;;;7362461;19;20015;-61
2022/05/25 04:48:44;;;;;;;1.40;1.20;;;13.80;1.00;;;;;;7360187;19;20022;-61
2022/05/25 04:51:14;;;;;;;3.17;1.00;;;13.90;1.00;;;;;;7360356;19;20014;-61
2022/05/25 04:53:44;;;;;;;2.70;1.20;;;13.60;1.00;;;;;;7391711;19;20017;-60
2022/05/25 04:58:57;;;;;;;3.78;1.13;;;13.70;1.00;;;;;;7365335;19;20094;-61
2022/05/25 05:01:27;;;;;;;2.67;0.93;;;13.80;1.00;;;;;;7365093;19;20013;-61
2022/05/25 05:04:03;;;;;;;2.40;0.90;;;13.80;1.00;;;;;;7370356;19;20082;-62
2022/05/25 05:06:33;;;;;;;1.05;0.60;;;14.00;1.00;;;;;;7371159;19;20078;-61
2022/05/25 05:09:06;;;;;;;2.65;0.90;;;13.70;1.00;;;;;;7384651;19;20070;-61
2022/05/25 05:11:37;;;;;;;3.40;0.95;;;13.70;1.00;;;;;;7384838;19;20007;-61
2022/05/25 05:14:07;;;;;;;3.63;1.08;;;13.70;1.00;;;;;;7368660;19;20480;-60
2022/05/25 05:16:37;;;;;;;1.27;0.75;;;14.00;1.00;;;;;;7370945;19;20017;-61
2022/05/25 05:19:10;;;;;;;4.85;0.90;;;14.10;1.00;;;;;;7365943;19;20034;-60
2022/05/25 05:21:40;;;;;;;1.48;0.70;;;14.90;1.00;;;;;;7363633;19;20085;-60
2022/05/25 05:24:11;;;;;;;2.00;0.70;;;15.30;1.00;;;;;;7366533;19;20018;-61
2022/05/25 05:26:41;;;;;;;2.05;1.13;;;15.50;1.00;;;;;;7390734;19;20482;-60
2022/05/25 05:29:11;;;;;;;3.55;1.05;;;16.50;1.00;;;;;;7364940;19;20022;-60
2022/05/25 05:31:41;;;;;;;4.78;1.38;;;15.90;1.00;;;;;;7361872;19;20010;-60
2022/05/25 05:34:13;;;;;;;5.88;1.05;;;15.70;1.00;;;;;;7366435;19;20006;-60
2022/05/25 05:36:47;;;;;;;6.47;1.45;;;14.90;1.00;;;;;;7368986;19;20013;-59
2022/05/25 05:39:19;;;;;;;2.38;1.27;;;15.80;1.00;;;;;;7364770;19;20078;-60
2022/05/25 05:41:53;;;;;;;2.85;1.08;;;17.40;1.00;;;;;;7384336;19;20007;-60
2022/05/25 05:44:26;;;;;;;8.27;1.27;;;18.20;1.00;;;;;;7368886;19;20015;-60
2022/05/25 05:47:05;;;;;;;3.55;1.13;;;19.30;1.00;;;;;;7367715;19;20014;-60
2022/05/25 05:49:38;;;;;;;2.42;0.90;;;18.90;1.00;;;;;;7363972;19;20006;-60
2022/05/25 05:52:09;;;;;;;4.07;1.05;;;17.00;1.00;;;;;;7361405;19;20549;-61
2022/05/25 05:54:41;;;;;;;2.22;1.08;;;17.00;1.00;;;;;;7367772;19;20455;-61
2022/05/25 05:57:10;;;;;;;4.07;0.90;;;17.10;1.00;;;;;;7366561;19;20470;-61
2022/05/25 05:59:40;;;;;;;2.95;1.20;;;16.00;1.00;;;;;;7381761;19;20014;-62
2022/05/25 06:02:10;;;;;;;3.75;1.02;;;15.80;1.00;;;;;;7362716;19;20025;-62
2022/05/25 06:04:43;;;;;;;1.67;0.95;;;18.10;1.00;;;;;;7366810;19;20029;-61
2022/05/25 06:07:13;;;;;;;2.45;1.00;;;19.50;1.00;;;;;;7368127;19;20010;-61
2022/05/25 06:09:43;;;;;;;1.73;1.08;;;17.60;1.00;;;;;;7363683;19;20082;-60
2022/05/25 06:12:14;;;;;;;1.30;0.82;;;18.50;1.00;;;;;;7358955;19;20023;-61
2022/05/25 06:14:44;;;;;;;2.88;0.77;;;17.60;1.00;;;;;;7387465;19;20010;-61
2022/05/25 06:19:59;;;;;;;2.05;0.98;;;17.30;1.00;;;;;;7361989;19;20063;-62
2022/05/25 06:22:33;;;;;;;2.33;0.93;;;18.10;1.00;;;;;;7360042;19;20057;-61
2022/05/25 06:25:03;;;;;;;2.72;0.85;;;17.60;1.00;;;;;;7364366;19;20338;-61
2022/05/25 06:27:34;;;;;;;1.17;0.80;;;18.10;1.00;;;;;;7363584;19;20086;-61
2022/05/25 06:30:03;;;;;;;4.93;0.90;;;17.00;1.00;;;;;;7378026;19;20014;-62
2022/05/25 06:32:33;;;;;;;3.25;0.90;;;16.60;1.00;;;;;;7379471;19;20550;-61
2022/05/25 06:35:06;;;;;;;2.22;0.80;;;17.30;1.00;;;;;;7360826;19;20431;-61
2022/05/25 06:37:36;;;;;;;3.95;1.02;;;16.30;1.00;;;;;;7362751;19;20078;-62
2022/05/25 06:40:07;;;;;;;4.32;1.00;;;16.40;1.00;;;;;;7362601;19;20462;-62
2022/05/25 06:42:39;;;;;;;2.15;0.80;;;16.90;1.00;;;;;;7359390;19;20025;-62
2022/05/25 06:45:10;;;;;;;4.18;1.23;;;17.10;1.00;;;;;;7364440;19;20029;-62
2022/05/25 06:47:40;;;;;;;2.70;1.13;;;17.00;1.00;;;;;;7384549;19;20002;-61
2022/05/25 06:50:14;;;;;;;3.83;1.20;;;17.10;1.00;;;;;;7359858;19;20058;-62
2022/05/25 06:52:43;;;;;;;2.00;0.90;;;17.00;1.00;;;;;;7358028;19;20346;-62
2022/05/25 06:55:13;;;;;;;5.03;1.20;;;16.90;1.00;;;;;;7363380;19;20011;-62
2022/05/25 06:57:44;;;;;;;2.75;1.02;;;16.80;1.00;;;;;;7362867;19;20018;-62
2022/05/25 07:00:15;;;;;;;2.65;0.88;;;16.90;1.00;;;;;;7360787;19;20409;-61
2022/05/25 07:02:44;;;;;;;3.90;1.00;;;17.20;1.00;;;;;;7381387;19;20470;-61
2022/05/25 07:05:17;;;;;;;1.08;0.70;;;17.20;1.00;;;;;;7362932;19;20021;-62
2022/05/25 07:07:48;;;;;;;2.72;0.60;;;17.00;1.00;;;;;;7363596;19;20010;-62
2022/05/25 07:10:17;;;;;;;3.65;0.63;;;16.60;1.00;;;;;;7361013;19;20010;-62
2022/05/25 07:12:47;;;;;;;2.22;0.90;;;16.30;1.00;;;;;;7359844;19;20011;-61
2022/05/25 07:15:17;;;;;;;3.53;0.80;;;16.70;1.00;;;;;;7362188;19;20007;-62
2022/05/25 07:17:48;;;;;;;2.38;0.80;;;16.90;1.00;;;;;;7385224;19;20011;-61
2022/05/25 07:20:21;;;;;;;2.83;0.85;;;16.90;1.00;;;;;;7361382;19;20506;-62
2022/05/25 07:22:50;;;;;;;1.98;0.80;;;17.00;1.00;;;;;;7360323;19;20034;-61
2022/05/25 07:25:21;;;;;;;3.40;1.20;;;17.60;1.00;;;;;;7364615;19;20018;-62
2022/05/25 07:27:51;;;;;;;7.60;1.10;;;17.70;1.00;;;;;;7363658;19;20090;-62
2022/05/25 07:30:21;;;;;;;1.52;0.80;;;17.60;1.00;;;;;;7361617;19;20074;-61
2022/05/25 07:32:51;;;;;;;2.63;0.90;;;17.70;1.00;;;;;;7380398;19;20097;-62
2022/05/25 07:35:24;;;;;;;1.35;0.70;;;18.00;1.00;;;;;;7361586;19;20956;-62
2022/05/25 07:37:58;;;;;;;1.60;1.00;;;18.30;1.00;;;;;;7363299;19;20110;-62
2022/05/25 07:40:32;;;;;;;1.90;0.80;;;17.80;1.00;;;;;;7361812;19;20013;-61
2022/05/25 07:43:07;;;;;;;2.03;0.93;;;17.30;1.00;;;;;;7362810;19;20235;-62
2022/05/25 07:45:38;;;;;;;1.58;0.80;;;17.70;1.00;;;;;;7363610;19;20021;-61
2022/05/25 07:48:09;;;;;;;1.98;0.88;;;17.60;1.00;;;;;;7362659;19;20087;-62
2022/05/25 07:50:43;;;;;;;3.50;1.05;;;17.70;1.00;;;;;;7380743;19;20018;-62
2022/05/25 07:56:00;;;;;;;1.40;0.80;;;18.00;1.00;;;;;;7362384;19;20498;-62
2022/05/25 07:58:30;;;;;;;3.97;0.85;;;17.80;1.00;;;;;;7362757;19;20102;-61
2022/05/25 08:01:04;;;;;;;1.38;0.88;;;17.80;1.00;;;;;;7357817;19;20040;-62
2022/05/25 08:06:19;;;;;;;3.08;0.90;;;17.90;1.00;;;;;;7364136;19;20031;-62
2022/05/25 08:08:51;;;;;;;3.65;0.90;;;18.20;1.00;;;;;;7385646;19;20014;-62
2022/05/25 08:11:23;;;;;;;6.18;1.00;;;18.60;1.00;;;;;;7356580;19;19999;-61
2022/05/25 08:13:56;;;;;;;5.07;1.00;;;18.40;1.00;;;;;;7362918;19;20066;-61
2022/05/25 08:16:26;;;;;;;3.47;0.82;;;18.00;1.00;;;;;;7364410;19;20019;-61
2022/05/25 08:18:56;;;;;;;3.40;0.90;;;18.00;1.00;;;;;;7360377;19;20139;-62
2022/05/25 08:21:28;;;;;;;1.50;0.70;;;18.60;1.00;;;;;;7358019;19;20109;-61
2022/05/25 08:24:15;;;;;;;0.82;0.70;;;17.80;1.00;;;;;;7362033;19;20010;-61
2022/05/25 08:26:45;;;;;;;2.75;1.00;;;18.60;1.00;;;;;;7388279;19;20523;-61
2022/05/25 08:29:15;;;;;;;4.10;1.02;;;19.00;1.00;;;;;;7367103;19;20024;-61
2022/05/25 08:31:45;;;;;;;3.65;0.90;;;18.00;1.00;;;;;;7365868;19;20084;-61
2022/05/25 08:34:15;;;;;;;2.28;1.00;;;19.20;1.00;;;;;;7369387;19;20007;-61
2022/05/25 08:36:47;;;;;;;4.50;1.02;;;18.80;1.00;;;;;;7371022;19;20078;-63
2022/05/25 08:39:17;;;;;;;1.65;0.90;;;19.10;1.00;;;;;;7366347;19;20018;-62
2022/05/25 08:41:49;;;;;;;1.70;0.73;;;20.00;1.00;;;;;;7387200;19;20072;-62
2022/05/25 08:44:23;;;;;;;1.83;1.00;;;19.20;1.00;;;;;;7369827;19;20037;-61
2022/05/25 08:46:57;;;;;;;4.63;1.15;;;18.50;1.00;;;;;;7370993;19;20350;-62
2022/05/25 08:49:29;;;;;;;2.17;0.85;;;19.20;1.00;;;;;;7366722;19;20726;-62
2022/05/25 08:52:06;;;;;;;2.65;0.70;;;20.10;1.00;;;;;;7365702;19;20018;-62
2022/05/25 08:54:39;;;;;;;3.53;0.98;;;19.60;1.00;;;;;;7367637;19;20011;-61
2022/05/25 08:57:16;;;;;;;2.10;0.70;;;20.00;1.00;;;;;;7370876;19;20078;-62
2022/05/25 08:59:52;;;;;;;2.60;0.68;;;19.50;1.00;;;;;;7387643;19;20486;-62
2022/05/25 09:02:29;;;;;;;1.73;0.70;;;18.70;1.00;;;;;;7363464;19;20010;-61
2022/05/25 09:05:07;;;;;;;1.90;0.90;;;19.40;1.00;;;;;;7367617;19;20829;-62
2022/05/25 09:07:48;;;;;;;2.08;0.77;;;19.90;1.00;;;;;;7368822;19;20015;-62
2022/05/25 09:10:19;;;;;;;1.80;0.82;;;19.80;1.00;;;;;;7365636;19;20090;-62
2022/05/25 09:12:52;;;;;;;2.47;0.80;;;19.80;1.00;;;;;;7363586;19;20019;-62
2022/05/25 09:15:25;;;;;;;1.65;0.90;;;19.30;1.00;;;;;;7367326;19;20088;-62
2022/05/25 09:18:00;;;;;;;2.78;0.55;;;19.30;1.00;;;;;;7384906;19;20027;-62
2022/05/25 09:20:34;;;;;;;1.05;0.82;;;18.80;1.00;;;;;;7363850;19;20094;-61
2022/05/25 09:23:08;;;;;;;1.83;0.68;;;19.20;1.00;;;;;;7366343;19;20147;-61
2022/05/25 09:25:39;;;;;;;3.83;1.17;;;18.70;1.00;;;;;;7367829;19;20031;-62
2022/05/25 09:28:12;;;;;;;2.10;0.80;;;18.50;1.00;;;;;;7366242;19;20027;-63
2022/05/25 09:30:45;;;;;;;1.58;0.60;;;19.10;1.00;;;;;;7361829;19;20014;-62
2022/05/25 09:33:18;;;;;;;1.02;0.60;;;18.70;1.00;;;;;;7365742;19;20010;-63
2022/05/25 09:35:53;;;;;;;4.32;0.70;;;18.40;1.00;;;;;;7388429;19;20119;-62
2022/05/25 09:38:45;;;;;;;4.60;0.70;;;18.80;1.00;;;;;;7365519;19;20018;-61
2022/05/25 09:41:17;;;;;;;1.85;0.80;;;18.70;1.00;;;;;;7361630;19;20081;-61
2022/05/25 09:43:47;;;;;;;2.72;0.80;;;19.40;1.00;;;;;;7368393;19;20106;-62
2022/05/25 09:46:30;;;;;;;4.22;0.70;;;20.00;1.00;;;;;;7368267;19;20006;-61
2022/05/25 09:49:03;;;;;;;1.88;0.60;;;19.50;1.00;;;;;;7365080;19;20018;-60
2022/05/25 09:51:37;;;;;;;2.67;0.73;;;20.10;1.00;;;;;;7362171;19;20125;-60
2022/05/25 09:54:16;;;;;;;2.28;0.88;;;19.60;1.00;;;;;;7365523;19;20023;-61
2022/05/25 09:56:52;;;;;;;2.72;1.25;;;18.90;1.00;;;;;;7389563;19;20014;-61
2022/05/25 09:59:27;;;;;;;4.68;1.10;;;19.60;1.00;;;;;;7364437;19;20036;-60
2022/05/25 10:01:58;;;;;;;2.75;0.70;;;19.40;1.00;;;;;;7361555;19;20011;-62
2022/05/25 10:04:51;;;;;;;3.55;0.60;;;19.70;1.00;;;;;;7365638;19;20018;-60
2022/05/25 10:07:27;;;;;;;2.03;0.65;;;19.10;1.00;;;;;;7367351;19;20416;-62
2022/05/25 10:10:03;;;;;;;0.80;0.55;;;19.20;1.00;;;;;;7366415;19;20030;-61
2022/05/25 10:12:35;;;;;;;1.92;0.63;;;19.70;1.00;;;;;;7361442;19;20010;-60
2022/05/25 10:15:09;;;;;;;1.67;0.60;;;19.40;1.00;;;;;;7364968;19;20026;-61
2022/05/25 10:17:40;;;;;;;1.67;0.70;;;20.20;1.00;;;;;;7388492;19;20069;-61
2022/05/25 10:20:23;;;;;;;2.28;0.70;;;20.10;1.00;;;;;;7365044;19;20389;-61
2022/05/25 10:23:01;;;;;;;3.22;0.68;;;20.10;1.00;;;;;;7362287;19;20021;-61
2022/05/25 10:25:38;;;;;;;2.22;0.80;;;19.90;1.00;;;;;;7366399;19;20045;-60
2022/05/25 10:28:20;;;;;;;3.40;0.70;;;19.60;1.00;;;;;;7366024;19;20718;-60
2022/05/25 10:36:52;;;;;;;1.33;0.70;;;19.20;1.00;;;;;;7368615;19;20010;-60
2022/05/25 10:39:26;;;;;;;6.20;0.80;;;20.20;1.00;;;;;;7363320;19;20085;-61
2022/05/25 10:42:09;;;;;;;3.00;0.65;;;20.10;1.00;;;;;;7382375;19;20038;-60
2022/05/25 10:44:52;;;;;;;1.58;0.77;;;20.10;1.00;;;;;;7365555;19;20055;-61
2022/05/25 10:47:46;;;;;;;2.80;0.90;;;19.50;1.00;;;;;;7366913;19;20110;-61
2022/05/25 10:50:26;;;;;;;3.33;0.63;;;19.50;1.00;;;;;;7360491;19;20020;-60
2022/05/25 10:53:02;;;;;;;2.25;0.90;;;19.90;1.00;;;;;;7359022;19;20043;-61
2022/05/25 10:55:38;;;;;;;1.00;0.60;;;20.10;1.00;;;;;;7363893;19;20086;-61
2022/05/25 10:58:30;;;;;;;3.42;0.90;;;20.20;1.00;;;;;;7363988;19;20010;-62
2022/05/25 11:01:11;;;;;;;1.38;0.60;;;20.40;1.00;;;;;;7358220;19;20037;-61
2022/05/25 11:04:21;;;;;;;3.90;0.90;;;19.60;1.00;;;;;;7363021;19;20014;-62
2022/05/25 11:07:01;;;;;;;1.70;0.60;;;20.60;1.00;;;;;;7364550;19;20076;-61
2022/05/25 11:10:02;;;;;;;1.73;0.60;;;19.60;1.00;;;;;;7359217;19;20018;-61
2022/05/25 11:12:41;;;;;;;1.35;0.60;;;20.10;1.00;;;;;;7358379;19;20181;-61
2022/05/25 11:15:26;;;;;;;2.40;0.65;;;20.40;1.00;;;;;;7360719;19;20534;-62
2022/05/25 11:18:24;;;;;;;2.88;0.90;;;20.40;1.00;;;;;;7384115;19;20033;-61
2022/05/25 11:21:08;;;;;;;1.00;0.60;;;20.40;1.00;;;;;;7359401;19;20010;-61
2022/05/25 11:23:56;;;;;;;1.23;0.57;;;20.90;1.00;;;;;;7361603;19;20069;-60
2022/05/25 11:26:49;;;;;;;2.08;0.52;;;20.90;1.00;;;;;;7364167;19;20367;-61
2022/05/25 11:29:33;;;;;;;5.13;0.55;;;20.20;1.00;;;;;;7359260;19;20023;-61
2022/05/25 11:32:14;;;;;;;2.40;0.60;;;20.60;1.00;;;;;;7358050;19;20426;-60
2022/05/25 11:35:04;;;;;;;1.08;0.55;;;20.00;1.00;;;;;;7362304;19;20024;-59
2022/05/25 11:37:50;;;;;;;2.60;0.70;;;19.90;1.00;;;;;;7362464;19;20519;-59
2022/05/25 11:40:28;;;;;;;3.08;0.77;;;20.40;1.00;;;;;;7361131;19;20027;-60
2022/05/25 11:43:29;;;;;;;1.98;0.55;;;21.20;1.00;;;;;;7360041;19;20014;-60
2022/05/25 11:46:08;;;;;;;2.45;0.52;;;20.70;1.00;;;;;;7363415;19;20015;-60
2022/05/25 11:49:26;;;;;;;2.28;0.60;;;20.20;1.00;;;;;;7361943;19;20473;-59
2022/05/25 11:52:08;;;;;;;4.57;0.82;;;20.60;1.00;;;;;;7359758;19;20078;-59
2022/05/25 11:54:52;;;;;;;2.42;0.95;;;20.50;1.00;;;;;;7363067;19;20122;-59
2022/05/25 11:57:34;;;;;;;1.42;0.60;;;20.40;1.00;;;;;;7363748;19;20006;-60
2022/05/25 12:00:31;;;;;;;2.50;0.70;;;20.60;1.00;;;;;;7376697;19;20026;-61
2022/05/25 12:03:28;;;;;;;0.90;0.50;;;20.80;1.00;;;;;;7391809;19;20466;-60
2022/05/25 12:06:09;;;;;;;3.20;0.93;;;20.40;1.00;;;;;;7368561;19;20018;-60
2022/05/25 12:09:09;;;;;;;0.70;0.45;;;21.30;1.00;;;;;;7370871;19;20010;-60
2022/05/25 12:11:45;;;;;;;1.08;0.60;;;21.30;1.00;;;;;;7364895;19;20035;-59
2022/05/25 12:14:34;;;;;;;4.63;0.95;;;20.70;1.00;;;;;;7369085;19;20017;-60
2022/05/25 12:17:23;;;;;;;2.17;0.60;;;21.10;1.00;;;;;;7368386;19;20089;-60
2022/05/25 12:19:57;;;;;;;2.13;0.45;;;21.50;1.00;;;;;;7364643;19;20026;-60
2022/05/25 12:22:35;;;;;;;5.53;0.52;;;21.30;1.00;;;;;;7363156;19;20545;-59
2022/05/25 12:25:09;;;;;;;1.23;0.50;;;21.10;1.00;;;;;;7367972;19;20415;-60
2022/05/25 12:27:43;;;;;;;0.93;0.43;;;21.10;1.00;;;;;;7368394;19;20073;-60
2022/05/25 12:30:17;;;;;;;1.98;0.82;;;21.20;1.00;;;;;;7365904;19;20533;-60
2022/05/25 12:32:48;;;;;;;;;;;21.90;1.00;;;;;;7386027;19;20787;-60
2022/05/25 12:35:19;;;;;;;0.93;0.60;;;22.20;1.00;;;;;;7366379;19;19939;-60
2022/05/25 12:37:53;;;;;;;1.08;0.70;;;21.80;1.00;;;;;;7367281;19;20031;-60
2022/05/25 12:40:43;;;;;;;7.30;2.17;;;21.60;1.00;;;;;;7366061;19;20015;-60
2022/05/25 12:43:43;;;;;;;8.13;2.10;;;21.30;1.00;;;;;;7365681;19;20691;-60
2022/05/25 12:49:00;;;;;;;2.97;0.60;;;21.60;1.00;;;;;;7364961;19;20018;-59
2022/05/25 12:51:39;;;;;;;4.07;1.10;;;21.40;1.00;;;;;;7362309;19;20115;-60
2022/05/25 12:54:24;;;;;;;1.00;0.55;;;22.20;1.00;;;;;;7364794;19;20019;-60
2022/05/25 12:56:56;;;;;;;2.25;0.50;;;22.30;1.00;;;;;;7390203;19;20014;-60
2022/05/25 12:59:37;;;;;;;2.63;0.70;;;21.10;1.00;;;;;;7363465;19;20082;-60
2022/05/25 13:02:15;;;;;;;1.70;0.57;;;20.80;1.00;;;;;;7362141;19;20573;-60
2022/05/25 13:04:49;;;;;;;1.95;0.60;;;21.00;1.00;;;;;;7365418;19;20046;-60
2022/05/25 13:07:37;;;;;;;3.72;0.60;;;21.00;1.00;;;;;;7367747;19;20010;-60
2022/05/25 13:10:24;;;;;;;2.83;0.63;;;21.60;1.00;;;;;;7366254;19;20497;-59
2022/05/25 13:12:59;;;;;;;4.03;0.85;;;21.40;1.00;;;;;;7361974;19;20468;-60
2022/05/25 13:15:44;;;;;;;1.85;0.50;;;21.60;1.00;;;;;;7366113;19;20015;-59
2022/05/25 13:18:44;;;;;;;1.52;0.60;;;20.80;1.00;;;;;;7365461;19;20026;-59
2022/05/25 13:21:31;;;;;;;1.33;0.55;;;21.10;1.00;;;;;;7363196;19;20625;-59
2022/05/25 13:24:25;;;;;;;1.65;0.70;;;22.10;1.00;;;;;;7388585;19;20010;-59
2022/05/25 13:27:31;;;;;;;1.27;0.60;;;21.60;1.00;;;;;;7367923;19;20089;-60
2022/05/25 13:30:23;;;;;;;2.38;0.85;;;21.60;1.00;;;;;;7261471;19;2004239;-60
2022/05/25 13:32:56;;;;;;;6.32;0.68;;;21.20;1.00;;;;;;7385183;19;20490;-60
2022/05/25 13:35:45;;;;;;;1.85;0.55;;;22.10;1.00;;;;;;7363856;19;20049;-60
2022/05/25 13:38:33;;;;;;;4.25;0.85;;;22.50;1.00;;;;;;7363507;19;20098;-60
2022/05/25 13:41:10;;;;;;;1.75;0.80;;;22.20;1.00;;;;;;7362432;19;20018;-60
2022/05/25 13:43:50;;;;;;;72.18;32.58;;;21.90;1.00;;;;;;7364941;19;20750;-59
2022/05/25 13:46:39;;;;;;;12.55;5.38;;;21.60;1.00;;;;;;7367201;19;20014;-61
2022/05/25 13:49:18;;;;;;;2.97;0.85;;;21.80;1.00;;;;;;7365333;19;20018;-61
2022/05/25 13:51:48;;;;;;;8.90;3.53;;;21.20;1.00;;;;;;7359842;19;20561;-61
2022/05/25 13:54:26;;;;;;;7.55;3.47;;;22.00;1.00;;;;;;7364983;19;20970;-60
2022/05/25 13:57:17;;;;;;;2.33;0.63;;;21.60;1.00;;;;;;7364438;19;20019;-61
2022/05/25 13:59:47;;;;;;;2.25;0.50;;;21.00;1.00;;;;;;7386216;19;20022;-60
2022/05/25 14:02:27;;;;;;;1.73;0.75;;;21.40;1.00;;;;;;7360807;19;20025;-60
2022/05/25 14:05:00;;;;;;;1.10;0.50;;;21.40;1.00;;;;;;7364410;19;20037;-60
2022/05/25 14:07:37;;;;;;;3.17;0.70;;;21.00;1.00;;;;;;7365407;19;20719;-61